Time;durP1;ratioP1;P1;durP2;ratioP2;P2;SDS_P1;SDS_P2;PMS_P1;PMS_P2;Temp;Humidity;BMP_temperature;BMP_pressure;BME280_temperature;BME280_humidity;BME280_pressure;Samples;Min_cycle;Max_cycle;Signal;HPM_P1;HPM_P2
2021/07/29 00:14:13;;;;;;;6.70;2.55;;;;;;;13.66;72.71;99741.72;4659477;30;20069;-76
2021/07/29 00:20:38;;;;;;;;;;;;;;;;;;;;;
2021/07/29 00:27:01;;;;;;;;;;;;;;;;;;;;;
2021/07/29 00:58:43;;;;;;;8.77;2.03;;;;;;;13.60;72.50;99734.69;4811643;29;20102;-74
2021/07/29 01:02:04;;;;;;;5.30;1.08;;;;;;;13.59;72.91;99741.28;4808501;29;20059;-75
2021/07/29 01:04:30;;;;;;;2.55;1.80;;;;;;;13.50;72.61;99741.19;4819627;29;20966;-74
2021/07/29 01:07:43;;;;;;;5.65;1.30;;;;;;;13.55;73.16;99732.03;4814348;29;20098;-74
2021/07/29 01:11:17;;;;;;;5.22;1.40;;;;;;;13.61;72.83;99737.13;4847091;29;20034;-76
2021/07/29 01:17:57;;;;;;;8.23;1.85;;;;;;;13.71;72.42;99727.06;4866345;29;20077;-75
2021/07/29 01:37:04;;;;;;;;;;;;;;;;;;;;;
2021/07/29 01:39:55;;;;;;;10.85;1.83;;;;;;;14.11;71.96;99717.19;4987995;28;20117;-76
2021/07/29 01:46:52;;;;;;;;;;;;;;;;;;;;;
2021/07/29 01:49:22;;;;;;;7.43;1.77;;;;;;;13.98;72.07;99734.50;4974886;28;20086;-74
2021/07/29 01:56:10;;;;;;;7.57;1.90;;;;;;;13.81;71.85;99724.13;4935352;29;20043;-74
2021/07/29 01:59:07;;;;;;;4.22;1.60;;;;;;;13.87;71.67;99744.06;4942052;28;20108;-75
2021/07/29 02:01:33;;;;;;;9.10;2.25;;;;;;;13.64;72.14;99721.97;4914242;29;20047;-75
2021/07/29 02:04:56;;;;;;;4.97;1.80;;;;;;;13.76;72.05;99732.47;4994118;28;20093;-76
2021/07/29 02:07:21;;;;;;;2.00;1.20;;;;;;;13.75;71.98;99750.88;4978398;28;20134;-74
2021/07/29 02:09:47;;;;;;;4.50;2.63;;;;;;;13.72;72.70;99753.44;4976598;28;20022;-75
2021/07/29 02:12:12;;;;;;;5.15;1.60;;;;;;;13.66;72.77;99755.44;4985705;28;20038;-75
2021/07/29 02:14:38;;;;;;;5.15;1.17;;;;;;;13.65;72.72;99755.75;4978287;28;20022;-74
2021/07/29 02:17:03;;;;;;;3.15;1.70;;;;;;;13.66;73.28;99749.94;4964341;28;20118;-74
2021/07/29 02:19:34;;;;;;;9.80;2.25;;;;;;;13.67;73.18;99751.59;4971662;28;20058;-74
2021/07/29 02:22:01;;;;;;;6.07;1.58;;;;;;;13.66;73.55;99749.94;4997490;28;20105;-74
2021/07/29 02:24:27;;;;;;;3.58;2.08;;;;;;;13.69;73.58;99745.78;4941747;28;20046;-74
2021/07/29 02:27:19;;;;;;;3.38;1.65;;;;;;;13.74;73.46;99741.03;4943766;28;20434;-77
2021/07/29 02:29:48;;;;;;;5.15;2.63;;;;;;;13.77;73.25;99732.16;4993906;28;20030;-76
2021/07/29 02:32:14;;;;;;;13.82;2.13;;;;;;;13.88;73.02;99723.72;4977467;28;20026;-76
2021/07/29 02:34:40;;;;;;;6.72;2.25;;;;;;;13.95;73.18;99729.63;4970465;28;20493;-76
2021/07/29 02:37:13;;;;;;;7.78;2.15;;;;;;;13.96;72.40;99714.78;4977383;28;20038;-78
2021/07/29 02:39:43;;;;;;;6.72;2.10;;;;;;;14.07;72.46;99716.16;4976033;28;20427;-75
2021/07/29 02:42:27;;;;;;;7.28;2.22;;;;;;;14.17;71.72;99730.84;4947969;28;20212;-75
2021/07/29 02:54:45;;;;;;;;;;;;;;;;;;;;;
2021/07/29 03:05:00;;;;;;;7.55;2.00;;;;;;;14.37;70.57;99746.91;4972934;28;20452;-76
2021/07/29 03:11:08;;;;;;;;;;;;;;;;;;;;;
2021/07/29 03:20:46;;;;;;;4.85;1.70;;;;;;;14.26;71.32;99748.25;4779989;29;20106;-72
2021/07/29 03:26:39;;;;;;;6.15;1.77;;;;;;;14.18;71.05;99763.53;4788950;29;20056;-73
2021/07/29 03:29:05;;;;;;;10.63;1.92;;;;;;;14.12;71.20;99762.00;4800823;29;20130;-73
2021/07/29 03:31:30;;;;;;;8.68;1.90;;;;;;;14.06;71.40;99753.06;4900991;28;20517;-74
2021/07/29 03:33:56;;;;;;;5.97;2.38;;;;;;;14.00;71.42;99762.50;4962936;28;20138;-74
2021/07/29 03:36:21;;;;;;;5.05;1.90;;;;;;;13.95;71.79;99757.13;4956504;28;21086;-73
2021/07/29 03:38:47;;;;;;;3.35;1.52;;;;;;;13.88;71.87;99753.94;4994138;28;20050;-73
2021/07/29 03:41:33;;;;;;;8.50;2.55;;;;;;;13.75;72.14;99759.13;5019390;28;20061;-72
2021/07/29 03:52:35;;;;;;;6.03;1.90;;;;;;;13.58;72.40;99778.13;4910059;28;20719;-73
2021/07/29 03:55:00;;;;;;;5.75;1.92;;;;;;;13.46;73.38;99766.81;4918729;29;20051;-74
2021/07/29 03:57:26;;;;;;;5.05;1.63;;;;;;;13.39;73.35;99773.50;4905845;29;20028;-72
2021/07/29 03:59:51;;;;;;;10.52;2.13;;;;;;;13.32;73.75;99773.03;4892539;29;20060;-73
2021/07/29 04:02:17;;;;;;;6.80;2.35;;;;;;;13.29;73.82;99784.63;4921291;29;20424;-74
2021/07/29 04:04:45;;;;;;;4.07;1.98;;;;;;;13.27;74.19;99781.34;4891012;29;20411;-74
2021/07/29 04:07:10;;;;;;;4.65;1.55;;;;;;;13.23;74.01;99786.66;4923726;29;20039;-76
2021/07/29 04:09:39;;;;;;;4.60;1.73;;;;;;;13.17;73.82;99787.00;4901433;29;20441;-74
2021/07/29 04:12:05;;;;;;;9.80;2.05;;;;;;;13.14;74.39;99790.34;4908649;29;20049;-73
2021/07/29 04:14:31;;;;;;;4.90;1.85;;;;;;;13.09;74.80;99783.84;4918091;29;20051;-76
2021/07/29 04:16:59;;;;;;;7.25;1.50;;;;;;;13.03;74.41;99784.22;4920472;29;20028;-74
2021/07/29 04:19:25;;;;;;;3.28;1.50;;;;;;;12.98;74.38;99790.63;4917364;29;20031;-74
2021/07/29 04:21:50;;;;;;;6.60;2.30;;;;;;;12.98;74.84;99796.09;4889099;29;20028;-74
2021/07/29 04:24:17;;;;;;;8.98;1.88;;;;;;;12.92;75.08;99803.59;4921344;29;20095;-74
2021/07/29 04:26:43;;;;;;;4.63;1.65;;;;;;;12.90;74.52;99796.75;4923994;29;20032;-74
2021/07/29 04:29:08;;;;;;;7.30;1.70;;;;;;;12.85;75.04;99794.91;4922680;29;20036;-73
2021/07/29 04:31:51;;;;;;;2.60;1.38;;;;;;;12.86;75.32;99792.97;4908034;29;20043;-74
2021/07/29 04:52:53;;;;;;;6.07;1.47;;;;;;;12.73;75.43;99809.06;5009503;23;20042;-75
2021/07/29 04:55:19;;;;;;;6.28;1.33;;;;;;;12.70;75.72;99804.19;4968811;28;20789;-74
2021/07/29 04:57:54;;;;;;;3.72;1.58;;;;;;;12.62;75.96;99793.84;4980552;28;20023;-75
2021/07/29 05:04:32;;;;;;;;;;;;;;;;;;;;;
2021/07/29 05:10:52;;;;;;;11.98;1.95;;;;;;;12.93;75.35;99812.63;4863811;29;20160;-75
2021/07/29 05:13:55;;;;;;;3.80;1.92;;;;;;;12.97;74.65;99805.44;4869936;29;20049;-74
2021/07/29 05:16:41;;;;;;;5.15;1.45;;;;;;;13.08;74.70;99815.16;4908869;29;20046;-75
2021/07/29 05:19:07;;;;;;;;;;;;;;;13.39;74.69;99844.06;4921200;29;20042;-74
2021/07/29 05:21:33;;;;;;;4.47;1.42;;;;;;;13.39;74.17;99844.06;4972373;28;21608;-74
2021/07/29 05:25:23;;;;;;;;;;;;;;;;;;;;;
2021/07/29 05:28:39;;;;;;;2.65;1.67;;;;;;;13.58;73.77;99814.66;4898254;28;20038;-75
2021/07/29 05:34:32;;;;;;;;;;;;;;;;;;;;;
2021/07/29 05:37:23;;;;;;;3.90;1.48;;;;;;;14.07;72.93;99848.13;4995097;28;20126;-75
2021/07/29 05:39:50;;;;;;;8.45;1.95;;;;;;;14.00;71.96;99836.72;4952201;28;20031;-74
2021/07/29 05:42:39;;;;;;;3.28;1.45;;;;;;;14.08;72.00;99841.53;4980765;28;20022;-74
2021/07/29 05:45:07;;;;;;;5.07;1.38;;;;;;;14.22;71.30;99844.28;4960195;28;20027;-75
2021/07/29 05:47:42;;;;;;;1.80;0.90;;;;;;;14.24;71.71;99844.00;4973747;28;20026;-75
2021/07/29 05:50:36;;;;;;;5.10;1.60;;;;;;;14.21;71.44;99852.84;4972941;28;20114;-74
2021/07/29 05:53:17;;;;;;;4.80;1.75;;;;;;;14.36;71.37;99855.28;4965258;28;20066;-72
2021/07/29 05:56:04;;;;;;;2.60;1.17;;;;;;;14.44;70.56;99854.59;4962885;28;20117;-73
2021/07/29 05:59:25;;;;;;;;;;;;;;;;;;;;;
2021/07/29 06:01:54;;;;;;;2.72;1.40;;;;;;;14.53;70.32;99873.09;4910661;29;20040;-72
2021/07/29 06:04:44;;;;;;;;;;;;;;;;;;;;;
2021/07/29 06:07:30;;;;;;;;;;;;;;;;;;;;;
2021/07/29 06:13:05;;;;;;;2.28;1.15;;;;;;;14.79;69.57;99843.16;4982794;28;20042;-73
2021/07/29 06:15:42;;;;;;;4.32;1.48;;;;;;;14.82;69.34;99835.13;4947616;28;20081;-73
2021/07/29 06:18:24;;;;;;;5.85;1.30;;;;;;;15.06;69.24;99856.06;4980483;28;20472;-74
2021/07/29 06:21:17;;;;;;;4.40;1.40;;;;;;;15.11;68.95;99853.19;4985494;28;20046;-73
2021/07/29 06:23:43;;;;;;;4.03;0.93;;;;;;;15.13;68.54;99856.44;4971742;28;20050;-73
2021/07/29 06:26:15;;;;;;;4.43;1.17;;;;;;;15.13;68.32;99867.47;4963454;28;20022;-73
2021/07/29 06:28:41;;;;;;;7.45;1.48;;;;;;;15.32;68.33;99874.75;4952310;28;20014;-72
2021/07/29 06:31:08;;;;;;;4.60;1.30;;;;;;;15.40;67.42;99875.94;4954330;28;20133;-73
2021/07/29 06:33:34;;;;;;;3.22;1.45;;;;;;;15.56;67.12;99879.97;4952704;28;20034;-71
2021/07/29 06:36:01;;;;;;;4.85;1.27;;;;;;;15.61;66.43;99881.75;4969960;28;20117;-72
2021/07/29 06:38:27;;;;;;;2.10;1.10;;;;;;;15.73;66.47;99881.22;4975683;28;20033;-73
2021/07/29 06:40:52;;;;;;;5.63;1.40;;;;;;;15.79;65.75;99894.59;4968516;28;20038;-72
2021/07/29 06:43:17;;;;;;;7.38;1.50;;;;;;;15.87;65.58;99895.75;4979550;28;20026;-72
2021/07/29 06:45:43;;;;;;;4.95;1.23;;;;;;;15.82;64.88;99888.44;4983153;28;20155;-73
2021/07/29 06:48:10;;;;;;;4.05;1.67;;;;;;;15.80;64.78;99898.16;4991710;28;20034;-73
2021/07/29 06:50:36;;;;;;;2.65;1.13;;;;;;;15.73;64.65;99890.31;4966837;28;20066;-73
2021/07/29 06:53:02;;;;;;;2.70;1.00;;;;;;;15.75;64.95;99893.53;4941253;28;20051;-74
2021/07/29 06:55:29;;;;;;;3.13;1.65;;;;;;;15.77;65.06;99904.25;4969052;28;20098;-75
2021/07/29 06:57:56;;;;;;;8.85;1.50;;;;;;;15.73;64.70;99906.03;4969889;28;20043;-72
2021/07/29 07:00:25;;;;;;;2.22;1.25;;;;;;;15.71;64.88;99896.13;4950841;28;20034;-72
2021/07/29 07:02:54;;;;;;;3.00;1.25;;;;;;;15.69;64.60;99900.31;4956726;28;20034;-74
2021/07/29 07:05:25;;;;;;;2.50;1.10;;;;;;;15.67;65.37;99897.06;4941496;28;20067;-73
2021/07/29 07:07:52;;;;;;;5.28;1.33;;;;;;;15.66;65.93;99889.94;4962910;28;20093;-73
2021/07/29 07:10:18;;;;;;;3.70;1.27;;;;;;;15.79;65.51;99902.06;4956509;28;20117;-72
2021/07/29 07:12:43;;;;;;;6.32;1.35;;;;;;;15.79;64.48;99908.38;4939029;28;20051;-75
2021/07/29 07:15:10;;;;;;;5.00;1.55;;;;;;;15.75;64.64;99910.09;4939901;28;20063;-78
2021/07/29 07:17:42;;;;;;;3.00;1.05;;;;;;;15.73;64.04;99900.53;4959801;28;20189;-75
2021/07/29 07:20:11;;;;;;;;;;;;;;;15.92;64.13;99925.97;4982000;28;20105;-74
2021/07/29 07:22:36;;;;;;;;;;;;;;;15.87;63.35;99907.63;4945693;28;19973;-73
2021/07/29 07:25:02;;;;;;;1.77;1.13;;;;;;;15.85;63.68;99917.31;4956986;28;19929;-79
2021/07/29 07:27:28;;;;;;;5.88;1.05;;;;;;;15.88;63.33;99909.22;4961068;28;20043;-77
2021/07/29 07:29:59;;;;;;;4.03;1.13;;;;;;;15.91;62.95;99916.06;4964458;28;20045;-77
2021/07/29 07:32:27;;;;;;;2.65;1.52;;;;;;;15.91;62.88;99907.78;4972948;28;20053;-77
2021/07/29 07:34:55;;;;;;;4.55;1.52;;;;;;;16.01;62.79;99932.34;4955915;28;20054;-77
2021/07/29 07:37:21;;;;;;;4.57;1.92;;;;;;;16.05;62.74;99916.81;4955813;28;20124;-77
2021/07/29 07:39:47;;;;;;;3.65;1.88;;;;;;;16.02;62.37;99919.41;4942271;28;20125;-76
2021/07/29 07:42:15;;;;;;;2.85;0.90;;;;;;;16.14;62.77;99927.91;4952005;28;20095;-78
2021/07/29 07:44:44;;;;;;;1.92;0.80;;;;;;;16.20;61.76;99934.91;4936018;29;20046;-78
2021/07/29 07:47:10;;;;;;;5.93;1.40;;;;;;;16.25;61.28;99933.16;4955965;28;20046;-76
2021/07/29 08:20:53;;;;;;;;;;;;;;;;;;;;;
2021/07/29 08:24:39;;;;;;;1.80;1.00;;;;;;;17.01;57.04;99930.25;4800457;29;20080;-80
2021/07/29 08:27:33;;;;;;;3.97;1.27;;;;;;;17.18;56.29;99936.94;4795882;29;20172;-78
2021/07/29 08:43:50;;;;;;;1.67;0.63;;;;;;;17.73;54.19;99941.03;4828507;29;20044;-77
2021/07/29 08:46:22;;;;;;;3.05;0.90;;;;;;;17.80;54.53;99949.66;4829499;29;20042;-76
2021/07/29 08:48:50;;;;;;;1.00;0.63;;;;;;;17.91;53.61;99942.66;4818804;29;20041;-77
2021/07/29 08:52:01;;;;;;;2.22;1.02;;;;;;;18.22;53.46;99949.13;4926642;28;20031;-76
2021/07/29 08:55:27;;;;;;;0.80;0.70;;;;;;;18.42;51.57;99948.41;4988783;28;20068;-77
2021/07/29 09:02:01;;;;;;;1.13;0.90;;;;;;;18.55;50.35;99954.88;4989931;28;20061;-78
2021/07/29 09:04:26;;;;;;;1.95;0.68;;;;;;;18.46;50.33;99951.34;4997033;28;20037;-78
2021/07/29 09:06:57;;;;;;;2.88;1.08;;;;;;;18.50;49.61;99946.78;4981484;28;20030;-77
2021/07/29 09:09:35;;;;;;;1.85;1.00;;;;;;;18.49;50.64;99945.94;5005301;28;20041;-79
2021/07/29 09:12:21;;;;;;;2.15;0.90;;;;;;;18.78;49.67;99954.66;4986432;28;20030;-76
2021/07/29 09:14:51;;;;;;;1.50;0.77;;;;;;;18.85;48.75;99941.06;4970336;28;20030;-77
2021/07/29 09:17:18;;;;;;;1.52;1.10;;;;;;;19.02;48.15;99951.28;5005896;28;20023;-77
2021/07/29 09:19:45;;;;;;;2.80;1.15;;;;;;;19.09;47.91;99945.22;4986919;28;20030;-76
2021/07/29 09:22:17;;;;;;;1.92;1.10;;;;;;;19.31;48.34;99947.69;4985529;28;20032;-77
2021/07/29 09:25:37;;;;;;;1.15;0.65;;;;;;;19.47;47.18;99949.88;4996314;28;20019;-79
2021/07/29 09:35:52;;;;;;;10.13;0.60;;;;;;;19.59;44.92;99947.16;4863039;29;20062;-81
2021/07/29 09:39:15;;;;;;;1.52;0.50;;;;;;;19.83;45.92;99917.91;4901016;29;20036;-78
2021/07/29 09:52:39;;;;;;;1.38;0.80;;;;;;;21.18;42.52;99924.84;4737780;30;20056;-78
2021/07/29 09:56:07;;;;;;;;;;;;;;;;;;;;;
2021/07/29 10:13:07;;;;;;;;;;;;;;;;;;;;;
2021/07/29 10:16:41;;;;;;;3.22;0.98;;;;;;;24.34;36.18;99934.63;4726585;30;20144;-78
2021/07/29 10:19:21;;;;;;;1.55;0.57;;;;;;;25.20;35.08;99954.00;4764477;29;20051;-78
2021/07/29 10:22:35;;;;;;;;;;;;;;;;;;;;;
2021/07/29 10:25:12;;;;;;;;;;;;;;;;;;;;;
2021/07/29 10:27:38;;;;;;;3.30;0.65;;;;;;;27.46;30.23;99960.38;4994998;28;20041;-76
2021/07/29 10:30:50;;;;;;;0.75;0.50;;;;;;;27.86;29.34;99967.81;5004482;28;20022;-76
2021/07/29 10:33:17;;;;;;;0.82;0.60;;;;;;;27.82;27.74;99946.53;4975879;28;20029;-79
2021/07/29 10:36:26;;;;;;;0.80;0.65;;;;;;;28.77;28.71;99987.72;4968742;28;20039;-78
2021/07/29 10:39:58;;;;;;;1.90;0.50;;;;;;;29.28;26.02;99964.00;4968225;28;20847;-78
2021/07/29 10:42:50;;;;;;;0.70;0.45;;;;;;;29.77;25.44;99962.25;4982332;28;20038;-77
2021/07/29 10:52:23;;;;;;;;;;;;;;;;;;;;;
2021/07/29 10:57:38;;;;;;;1.30;0.40;;;;;;;28.65;25.96;99939.09;4947191;28;20043;-77
2021/07/29 11:00:04;;;;;;;3.33;0.43;;;;;;;28.17;27.12;99942.25;4936195;28;20036;-78
2021/07/29 11:03:19;;;;;;;;;;;;;;;;;;;;;
2021/07/29 11:09:26;;;;;;;1.42;0.50;;;;;;;27.87;26.76;99932.06;4860294;29;20086;-77
2021/07/29 11:12:02;;;;;;;0.77;0.50;;;;;;;28.13;25.64;99941.41;4872973;29;20113;-77
2021/07/29 11:14:33;;;;;;;0.50;0.40;;;;;;;27.93;26.13;99950.16;4913705;28;20265;-76
2021/07/29 11:17:12;;;;;;;;;;;;;;;;;;;;;
2021/07/29 11:20:10;;;;;;;;;;;;;;;;;;;;;
2021/07/29 11:22:49;;;;;;;0.90;0.52;;;;;;;27.49;26.56;99951.16;4993859;28;20098;-77
2021/07/29 11:25:38;;;;;;;2.80;0.50;;;;;;;26.99;27.72;99932.81;4973816;28;20041;-78
2021/07/29 11:31:46;;;;;;;;;;;;;;;;;;;;;
2021/07/29 11:35:16;;;;;;;;;;;;;;;;;;;;;
2021/07/29 11:38:02;;;;;;;1.42;0.47;;;;;;;26.35;29.82;99954.66;4897309;29;20114;-77
2021/07/29 11:44:13;;;;;;;2.65;0.85;;;;;;;28.11;26.82;99950.25;4900570;29;20527;-77
2021/07/29 11:48:16;;;;;;;0.73;0.40;;;;;;;29.14;26.06;99927.41;4896044;29;20713;-77
2021/07/29 11:55:14;;;;;;;;;;;;;;;;;;;;;
2021/07/29 11:58:15;;;;;;;;;;;;;;;;;;;;;
2021/07/29 12:01:03;;;;;;;1.60;0.82;;;;;;;29.67;24.94;99926.47;4800022;29;20198;-77
2021/07/29 12:03:57;;;;;;;0.93;0.80;;;;;;;29.28;24.98;99926.56;4856078;29;20056;-77
2021/07/29 12:07:01;;;;;;;3.13;0.70;;;;;;;28.54;26.41;99919.38;4868090;29;20128;-77
2021/07/29 12:10:25;;;;;;;;;;;;;;;;;;;;;
2021/07/29 12:13:22;;;;;;;;;;;;;;;;;;;;;
2021/07/29 12:20:27;;;;;;;0.80;0.68;;;;;;;27.45;28.89;99916.66;5010410;28;20043;-77
2021/07/29 12:23:29;;;;;;;1.50;0.98;;;;;;;27.15;29.26;99924.09;4916287;28;20040;-77
2021/07/29 12:26:50;;;;;;;;;;;;;;;;;;;;;
2021/07/29 12:30:17;;;;;;;;;;;;;;;;;;;;;
2021/07/29 12:33:14;;;;;;;1.00;0.80;;;;;;;26.31;30.29;99912.59;4888743;29;20177;-76
2021/07/29 12:39:32;;;;;;;0.95;0.73;;;;;;;26.68;30.66;99922.13;4867306;29;20033;-76
2021/07/29 12:42:29;;;;;;;;;;;;;;;;;;;;;
2021/07/29 12:45:53;;;;;;;1.10;1.00;;;;;;;27.33;29.18;99924.22;4960625;29;20122;-77
2021/07/29 13:00:03;;;;;;;1.02;0.85;;;;;;;28.42;27.44;99933.03;4926044;28;20109;-76
2021/07/29 13:03:27;;;;;;;2.20;0.73;;;;;;;27.38;29.12;99927.84;4861689;29;20045;-78
2021/07/29 13:09:53;;;;;;;;;;;;;;;;;;;;;
2021/07/29 13:20:13;;;;;;;3.40;1.02;;;;;;;24.98;33.86;99919.31;4777262;30;20055;-77
2021/07/29 13:36:59;;;;;;;2.08;1.10;;;;;;;23.77;36.82;99925.94;4747176;30;20051;-76
2021/07/29 13:47:32;;;;;;;1.80;0.82;;;;;;;28.73;30.24;99901.31;4812724;29;20054;-76
2021/07/29 13:50:48;;;;;;;1.35;1.20;;;;;;;28.24;29.04;99902.91;4816262;29;20072;-74
2021/07/29 13:59:52;;;;;;;1.70;0.77;;;;;;;25.21;33.68;99883.66;4959737;28;20042;-73
2021/07/29 14:02:17;;;;;;;2.15;1.05;;;;;;;24.58;34.54;99897.09;4963196;28;20039;-72
2021/07/29 14:04:43;;;;;;;1.63;1.23;;;;;;;24.09;35.83;99897.81;4970013;28;20034;-74
2021/07/29 14:07:35;;;;;;;1.42;1.10;;;;;;;23.76;36.74;99885.22;4963177;28;20075;-74
2021/07/29 14:16:07;;;;;;;1.48;1.15;;;;;;;24.60;37.42;99879.19;5227966;23;20054;-72
2021/07/29 14:18:33;;;;;;;5.32;1.67;;;;;;;25.60;35.94;99889.00;4982200;28;20105;-73
2021/07/29 14:21:10;;;;;;;2.78;0.80;;;;;;;25.79;33.96;99876.03;4960810;28;20059;-73
2021/07/29 14:23:36;;;;;;;2.13;1.40;;;;;;;25.56;34.16;99876.16;4963456;28;20094;-74
2021/07/29 14:26:01;;;;;;;1.98;1.23;;;;;;;25.23;34.88;99872.09;4964627;28;20030;-74
2021/07/29 14:28:27;;;;;;;1.75;1.60;;;;;;;24.88;34.64;99876.81;4983140;28;20034;-73
2021/07/29 14:30:53;;;;;;;6.35;2.33;;;;;;;24.77;35.45;99873.06;4967555;28;20019;-73
2021/07/29 14:33:21;;;;;;;2.17;1.67;;;;;;;24.67;35.86;99859.72;4960373;28;20086;-72
2021/07/29 14:35:48;;;;;;;2.85;2.00;;;;;;;24.57;35.88;99873.13;4976803;28;20027;-73
2021/07/29 14:38:14;;;;;;;3.03;1.95;;;;;;;24.53;36.38;99866.69;4957315;28;20026;-73
2021/07/29 14:40:40;;;;;;;3.03;2.70;;;;;;;24.50;36.08;99859.03;4973496;28;20031;-74
2021/07/29 14:43:07;;;;;;;3.33;2.17;;;;;;;24.51;36.51;99863.44;4974686;28;20457;-73
2021/07/29 14:50:44;;;;;;;2.70;2.07;;;;;;;26.57;32.81;99860.34;4975286;28;20054;-73
2021/07/29 14:53:10;;;;;;;4.93;1.80;;;;;;;27.22;31.97;99861.59;4962123;28;20023;-74
2021/07/29 16:09:25;;;;;;;2.85;2.60;;;;;;;21.52;43.04;99875.41;4935522;29;20043;-73
2021/07/29 16:11:53;;;;;;;10.90;2.42;;;;;;;21.52;43.47;99864.28;4922289;29;20060;-74
2021/07/29 16:16:48;;;;;;;3.08;2.78;;;;;;;21.72;43.06;99865.25;4929233;29;20024;-74
2021/07/29 16:19:20;;;;;;;5.60;2.67;;;;;;;21.87;43.23;99866.44;4935590;29;20036;-74
2021/07/29 16:21:47;;;;;;;2.10;2.00;;;;;;;22.12;43.32;99867.91;4936112;29;20048;-74
2021/07/29 16:24:14;;;;;;;2.50;2.30;;;;;;;22.22;42.72;99865.75;4907866;29;20038;-73
2021/07/29 16:26:40;;;;;;;2.95;2.65;;;;;;;22.14;43.05;99857.22;4973962;28;20580;-73
2021/07/29 16:29:05;;;;;;;7.43;2.13;;;;;;;22.01;43.41;99860.47;4989034;28;20046;-73
2021/07/29 16:31:31;;;;;;;7.93;1.98;;;;;;;21.76;43.75;99863.38;4994480;28;20022;-73
2021/07/29 16:34:04;;;;;;;4.88;1.98;;;;;;;21.51;44.00;99857.09;4991434;28;20030;-74
2021/07/29 16:36:30;;;;;;;10.45;2.30;;;;;;;21.32;44.73;99864.09;4969064;28;20034;-72
2021/07/29 16:38:55;;;;;;;11.50;2.38;;;;;;;21.17;45.77;99856.47;4992277;28;20503;-74
2021/07/29 16:41:21;;;;;;;9.18;2.40;;;;;;;21.08;45.46;99854.66;4996055;28;20042;-73
2021/07/29 16:43:46;;;;;;;5.80;2.38;;;;;;;20.99;46.03;99845.63;4997200;28;20069;-73
2021/07/29 16:46:14;;;;;;;7.53;2.05;;;;;;;20.97;46.25;99847.97;4993497;28;20073;-73
2021/07/29 16:48:40;;;;;;;4.57;1.83;;;;;;;21.02;46.42;99850.50;4971330;28;20105;-73
2021/07/29 16:51:08;;;;;;;5.35;2.13;;;;;;;20.97;46.88;99849.91;4980853;28;20080;-75
2021/07/29 16:53:34;;;;;;;3.63;1.85;;;;;;;20.87;47.12;99851.22;4974702;28;20038;-73
2021/07/29 16:55:59;;;;;;;1.83;1.70;;;;;;;20.73;47.20;99855.19;4989327;28;20027;-73
2021/07/29 16:58:25;;;;;;;6.13;1.65;;;;;;;20.71;46.99;99840.81;4969035;28;20034;-74
2021/07/29 17:00:51;;;;;;;2.45;1.60;;;;;;;20.64;47.21;99840.56;4976130;28;20030;-73
2021/07/29 17:03:19;;;;;;;1.88;1.77;;;;;;;20.71;47.26;99829.72;4969645;28;20045;-73
2021/07/29 17:05:50;;;;;;;4.53;1.90;;;;;;;20.80;46.34;99837.13;4965548;28;20086;-74
2021/07/29 17:11:00;;;;;;;3.15;1.80;;;;;;;20.88;46.18;99850.88;4973354;23;20062;-73
2021/07/29 17:13:25;;;;;;;3.78;1.40;;;;;;;20.85;46.48;99825.75;4959628;28;20089;-74
2021/07/29 17:15:52;;;;;;;1.65;1.13;;;;;;;20.84;46.28;99826.94;4958105;28;20079;-74
2021/07/29 17:18:18;;;;;;;1.55;1.40;;;;;;;20.92;46.69;99835.13;4954978;28;20478;-72
2021/07/29 17:20:44;;;;;;;5.47;1.30;;;;;;;21.06;46.08;99833.94;4960638;28;20373;-74
2021/07/29 17:23:12;;;;;;;2.80;1.77;;;;;;;21.21;45.72;99824.03;4993777;28;20033;-75
2021/07/29 17:25:45;;;;;;;0.90;0.88;;;;;;;21.35;44.43;99824.47;4971175;28;20026;-73
2021/07/29 17:28:21;;;;;;;;;;;;;;;;;;;;;
2021/07/29 17:30:48;;;;;;;4.97;1.17;;;;;;;21.24;44.40;99823.34;4977364;28;20137;-74
2021/07/29 17:33:14;;;;;;;1.02;0.85;;;;;;;21.14;45.01;99824.63;4990498;28;20034;-73
2021/07/29 17:45:46;;;;;;;2.70;1.15;;;;;;;20.88;45.57;99800.88;4993690;28;20060;-75
2021/07/29 17:49:28;;;;;;;;;;;;;;;;;;;;;
2021/07/29 17:52:21;;;;;;;;;;;;;;;21.00;45.43;99813.13;4974350;28;20034;-74
2021/07/29 17:55:38;;;;;;;;;;;;;;;;;;;;;
2021/07/29 17:58:49;;;;;;;;;;;;;;;;;;;;;
2021/07/29 18:04:58;;;;;;;1.35;1.13;;;;;;;20.64;47.05;99812.78;4891306;29;20044;-74
2021/07/29 18:18:25;;;;;;;;;;;;;;;;;;;;;
2021/07/29 18:21:07;;;;;;;0.95;0.60;;;;;;;20.48;47.39;99798.78;4843411;29;20161;-74
2021/07/29 18:23:36;;;;;;;3.97;1.55;;;;;;;20.31;47.86;99805.41;4831070;29;20105;-73
2021/07/29 18:26:02;;;;;;;0.80;0.70;;;;;;;20.22;48.25;99805.53;4870763;28;20076;-72
2021/07/29 18:28:28;;;;;;;6.15;1.27;;;;;;;20.13;48.66;99798.47;4962285;28;20038;-74
2021/07/29 18:30:55;;;;;;;2.75;1.20;;;;;;;20.03;48.46;99811.63;4969929;28;20033;-74
2021/07/29 18:33:21;;;;;;;4.80;1.27;;;;;;;19.97;48.80;99793.56;4936737;28;20034;-75
2021/07/29 18:35:49;;;;;;;9.27;1.50;;;;;;;19.91;48.74;99781.09;4936126;28;20037;-74
2021/07/29 18:38:14;;;;;;;1.42;1.00;;;;;;;19.88;49.79;99779.81;4936092;28;20074;-74
2021/07/29 18:40:40;;;;;;;1.50;1.15;;;;;;;19.93;48.96;99787.13;4938279;28;20414;-73
2021/07/29 18:43:07;;;;;;;3.25;1.02;;;;;;;19.92;49.13;99779.94;4952128;28;20027;-73
2021/07/29 18:45:38;;;;;;;1.40;1.27;;;;;;;19.99;49.26;99782.97;4969840;28;20030;-74
2021/07/29 18:48:04;;;;;;;1.55;1.05;;;;;;;19.97;49.06;99788.03;4975097;28;20182;-73
2021/07/29 18:50:30;;;;;;;2.88;1.55;;;;;;;19.93;49.37;99772.41;4976214;28;20078;-73
2021/07/29 18:52:56;;;;;;;6.18;1.40;;;;;;;19.87;49.42;99769.88;4993079;28;20112;-75
2021/07/29 18:55:22;;;;;;;0.90;0.85;;;;;;;19.87;49.45;99775.44;4990601;28;20083;-73
2021/07/29 18:57:48;;;;;;;3.03;1.60;;;;;;;19.77;49.86;99775.00;4988518;28;20033;-73
2021/07/29 19:00:16;;;;;;;4.50;1.92;;;;;;;19.66;50.77;99769.91;4992735;28;20038;-73
2021/07/29 19:02:58;;;;;;;8.88;2.55;;;;;;;19.58;51.00;99768.06;4980690;28;20031;-77
2021/07/29 19:05:23;;;;;;;2.15;2.05;;;;;;;19.54;51.55;99765.16;4961721;28;20022;-79
2021/07/29 19:07:56;;;;;;;3.28;1.70;;;;;;;19.50;51.66;99763.41;4956437;28;20034;-78
2021/07/29 19:10:24;;;;;;;1.80;1.65;;;;;;;19.51;51.71;99765.03;4974912;28;20069;-75
2021/07/29 19:12:50;;;;;;;3.72;1.70;;;;;;;19.32;52.67;99760.81;5001013;28;20033;-75
2021/07/29 19:15:23;;;;;;;4.22;2.00;;;;;;;19.31;52.71;99756.41;4974222;28;20039;-74
2021/07/29 19:17:52;;;;;;;2.72;2.13;;;;;;;19.19;52.55;99756.38;4986211;28;20050;-74
2021/07/29 19:20:21;;;;;;;7.15;2.38;;;;;;;19.02;52.58;99751.78;4984288;28;20030;-77
2021/07/29 19:22:48;;;;;;;4.50;1.95;;;;;;;18.90;52.52;99765.59;4988592;28;20022;-77
2021/07/29 19:25:31;;;;;;;5.88;2.50;;;;;;;18.78;52.34;99769.09;5003688;28;20041;-77
2021/07/29 19:27:56;;;;;;;7.38;2.78;;;;;;;18.56;53.49;99748.88;4996887;28;20026;-73
2021/07/29 19:30:22;;;;;;;4.07;2.35;;;;;;;18.50;53.44;99753.00;4981142;28;20467;-75
2021/07/29 19:32:48;;;;;;;2.38;1.73;;;;;;;18.50;53.90;99747.44;4997031;28;20026;-76
2021/07/29 19:35:13;;;;;;;4.28;2.40;;;;;;;18.41;53.70;99746.69;4960086;28;20035;-76
2021/07/29 19:37:39;;;;;;;7.15;2.40;;;;;;;18.39;53.76;99746.22;4953019;28;20085;-75
2021/07/29 19:40:07;;;;;;;2.95;1.80;;;;;;;18.35;54.22;99742.50;4967115;28;20054;-75
2021/07/29 19:42:36;;;;;;;2.80;2.38;;;;;;;18.21;55.26;99731.66;4979952;28;20030;-78
2021/07/29 19:45:02;;;;;;;3.10;2.67;;;;;;;18.11;55.53;99730.09;4995939;28;20061;-76
2021/07/29 19:47:28;;;;;;;5.72;2.00;;;;;;;18.07;55.44;99726.38;4978175;28;20038;-76
2021/07/29 19:49:56;;;;;;;3.10;1.90;;;;;;;18.01;55.31;99731.28;4940778;28;20034;-75
2021/07/29 19:52:22;;;;;;;4.40;2.00;;;;;;;17.93;55.87;99724.66;4979009;28;20054;-74
2021/07/29 19:54:47;;;;;;;4.38;2.05;;;;;;;17.88;55.50;99727.56;4959916;28;20082;-73
2021/07/29 19:57:15;;;;;;;8.43;2.60;;;;;;;17.78;55.35;99727.94;5121675;23;20063;-72
2021/07/29 19:59:41;;;;;;;3.53;2.38;;;;;;;17.79;55.33;99730.38;4937683;29;20445;-73
2021/07/29 20:02:07;;;;;;;2.50;1.90;;;;;;;17.74;55.64;99738.03;4956304;28;20105;-72
2021/07/29 20:04:35;;;;;;;5.15;2.80;;;;;;;17.65;55.45;99723.44;4954934;28;20051;-73
2021/07/29 20:07:08;;;;;;;2.22;1.95;;;;;;;17.58;55.68;99722.00;4896752;28;20122;-73
2021/07/29 20:09:34;;;;;;;3.47;1.83;;;;;;;17.57;55.64;99717.59;4966688;28;20042;-73
2021/07/29 20:11:59;;;;;;;5.38;2.65;;;;;;;17.60;56.26;99733.53;4972592;28;20057;-71
2021/07/29 20:14:27;;;;;;;1.77;1.67;;;;;;;17.61;55.61;99729.63;4971631;28;20035;-73
2021/07/29 20:16:53;;;;;;;2.00;1.58;;;;;;;17.54;55.66;99712.75;4991687;28;20035;-72
2021/07/29 20:19:21;;;;;;;4.65;2.88;;;;;;;17.65;55.95;99728.97;4974849;28;20045;-74